Time;durP1;ratioP1;P1;durP2;ratioP2;P2;SDS_P1;SDS_P2;PMS_P1;PMS_P2;Temp;Humidity;BMP_temperature;BMP_pressure;BME280_temperature;BME280_humidity;BME280_pressure;Samples;Min_cycle;Max_cycle;Signal;HPM_P1;HPM_P2
2021/01/26 00:02:13;;;;;;;9.80;5.37;;;;;;;;;;10356196;28;20593;-71
2021/01/26 00:07:16;;;;;;;10.53;5.50;;;;;;;;;;10372082;28;20190;-72
2021/01/26 00:12:17;;;;;;;10.77;5.87;;;;;;;;;;10367973;28;20273;-71
2021/01/26 00:17:19;;;;;;;12.63;5.67;;;;;;;;;;10366822;28;20272;-71
2021/01/26 00:22:22;;;;;;;8.57;3.97;;;;;;;;;;10363947;28;20218;-71
2021/01/26 00:27:23;;;;;;;11.60;6.43;;;;;;;;;;10364807;28;20191;-71
2021/01/26 00:32:25;;;;;;;12.77;6.40;;;;;;;;;;10364751;28;20333;-71
2021/01/26 00:37:27;;;;;;;10.83;5.63;;;;;;;;;;10346215;28;20214;-71
2021/01/26 00:42:29;;;;;;;11.83;6.90;;;;;;;;;;10365959;28;20237;-71
2021/01/26 00:47:31;;;;;;;7.80;3.73;;;;;;;;;;10362968;28;20190;-71
2021/01/26 00:52:34;;;;;;;11.17;6.43;;;;;;;;;;10364916;28;20226;-72
2021/01/26 00:57:36;;;;;;;10.60;5.77;;;;;;;;;;10362818;28;20319;-71
2021/01/26 01:02:37;;;;;;;5.47;2.60;;;;;;;;;;10356407;28;20215;-72
2021/01/26 01:07:40;;;;;;;10.40;5.50;;;;;;;;;;10364840;28;20265;-72
2021/01/26 01:12:42;;;;;;;9.63;4.30;;;;;;;;;;10364241;28;20237;-73
2021/01/26 01:17:43;;;;;;;10.73;5.93;;;;;;;;;;10363488;28;20222;-71
2021/01/26 01:22:46;;;;;;;5.70;2.87;;;;;;;;;;10363255;28;20233;-71
2021/01/26 01:27:48;;;;;;;10.67;5.43;;;;;;;;;;10356516;28;20636;-72
2021/01/26 01:32:50;;;;;;;10.67;5.37;;;;;;;;;;10359540;28;20226;-72
2021/01/26 01:37:53;;;;;;;10.17;5.30;;;;;;;;;;10364909;28;20210;-72
2021/01/26 01:42:54;;;;;;;7.60;3.77;;;;;;;;;;10363952;28;20289;-71
2021/01/26 01:47:59;;;;;;;9.60;5.17;;;;;;;;;;10364224;28;20369;-71
2021/01/26 01:53:04;;;;;;;4.50;2.40;;;;;;;;;;10358523;28;20594;-73
2021/01/26 01:58:07;;;;;;;8.83;4.50;;;;;;;;;;10362913;28;20198;-72
2021/01/26 02:03:10;;;;;;;7.50;4.13;;;;;;;;;;10344893;28;20316;-71
2021/01/26 02:08:16;;;;;;;9.47;5.00;;;;;;;;;;10365178;28;20190;-72
2021/01/26 02:13:18;;;;;;;9.30;4.13;;;;;;;;;;10361963;28;20232;-72
2021/01/26 02:18:24;;;;;;;11.00;6.17;;;;;;;;;;10364766;28;20237;-72
2021/01/26 02:23:45;;;;;;;10.40;5.63;;;;;;;;;;10364768;28;20214;-72
2021/01/26 02:28:52;;;;;;;9.30;4.57;;;;;;;;;;10360836;28;20240;-72
2021/01/26 02:34:24;;;;;;;12.57;6.90;;;;;;;;;;10363667;28;20606;-72
2021/01/26 02:39:34;;;;;;;11.63;6.27;;;;;;;;;;10358815;28;20660;-72
2021/01/26 02:44:40;;;;;;;10.10;5.07;;;;;;;;;;10357190;28;20222;-72
2021/01/26 02:49:47;;;;;;;11.60;6.07;;;;;;;;;;10369903;28;20230;-72
2021/01/26 02:54:54;;;;;;;8.17;4.23;;;;;;;;;;10368964;28;20201;-72
2021/01/26 02:59:57;;;;;;;10.57;5.27;;;;;;;;;;10380007;28;20245;-73
2021/01/26 03:05:04;;;;;;;10.57;5.43;;;;;;;;;;10390769;28;20194;-71
2021/01/26 03:10:10;;;;;;;7.57;3.87;;;;;;;;;;10367063;28;20221;-73
2021/01/26 03:15:13;;;;;;;12.70;6.00;;;;;;;;;;10386237;28;20218;-73
2021/01/26 03:20:16;;;;;;;11.20;5.90;;;;;;;;;;10371871;28;20254;-72
2021/01/26 03:25:21;;;;;;;13.77;6.83;;;;;;;;;;10365961;28;20589;-73
2021/01/26 03:30:24;;;;;;;10.33;5.07;;;;;;;;;;10350327;28;20245;-72
2021/01/26 03:35:25;;;;;;;11.00;5.63;;;;;;;;;;10359241;28;20190;-72
2021/01/26 03:40:28;;;;;;;12.33;5.90;;;;;;;;;;10335887;28;20320;-72
2021/01/26 03:45:29;;;;;;;10.53;5.50;;;;;;;;;;10363303;28;20195;-72
2021/01/26 03:50:38;;;;;;;11.00;6.20;;;;;;;;;;10365687;28;20249;-72
2021/01/26 03:55:44;;;;;;;7.63;3.63;;;;;;;;;;10368933;28;20225;-72
2021/01/26 04:00:50;;;;;;;12.60;6.57;;;;;;;;;;10361493;28;20214;-71
2021/01/26 04:05:54;;;;;;;12.33;6.27;;;;;;;;;;10367759;28;20198;-72
2021/01/26 04:10:59;;;;;;;12.17;6.10;;;;;;;;;;10368866;28;20305;-72
2021/01/26 04:16:05;;;;;;;10.67;5.33;;;;;;;;;;10348299;28;20340;-71
2021/01/26 04:21:08;;;;;;;11.17;5.47;;;;;;;;;;10367975;28;20309;-71
2021/01/26 04:26:14;;;;;;;15.87;8.60;;;;;;;;;;10357691;28;20372;-71
2021/01/26 04:31:18;;;;;;;13.63;6.73;;;;;;;;;;10357381;28;20321;-71
2021/01/26 04:36:21;;;;;;;13.70;7.33;;;;;;;;;;10364867;28;20205;-71
2021/01/26 04:41:33;;;;;;;6.80;3.33;;;;;;;;;;10364357;28;20206;-71
2021/01/26 04:46:37;;;;;;;13.97;6.47;;;;;;;;;;10364486;28;20647;-71
2021/01/26 04:51:43;;;;;;;8.17;4.20;;;;;;;;;;10361719;28;20300;-71
2021/01/26 04:57:04;;;;;;;13.27;6.73;;;;;;;;;;10363874;28;20202;-70
2021/01/26 05:02:32;;;;;;;13.37;6.20;;;;;;;;;;10363158;28;20605;-71
2021/01/26 05:07:36;;;;;;;5.33;2.30;;;;;;;;;;10327068;28;20520;-72
2021/01/26 05:12:41;;;;;;;9.70;4.87;;;;;;;;;;10364856;28;20228;-71
2021/01/26 05:17:46;;;;;;;8.47;4.17;;;;;;;;;;10363518;28;20212;-72
2021/01/26 05:22:50;;;;;;;12.30;6.03;;;;;;;;;;10363886;28;20221;-71
2021/01/26 05:27:52;;;;;;;9.77;4.53;;;;;;;;;;10360729;28;20202;-71
2021/01/26 05:32:54;;;;;;;12.60;6.67;;;;;;;;;;10363644;28;20226;-72
2021/01/26 05:37:56;;;;;;;10.03;4.97;;;;;;;;;;10365855;28;20210;-72
2021/01/26 05:42:59;;;;;;;12.17;5.67;;;;;;;;;;10353388;28;20673;-71
2021/01/26 05:48:03;;;;;;;8.27;4.20;;;;;;;;;;10361561;28;20198;-72
2021/01/26 05:53:11;;;;;;;10.40;5.10;;;;;;;;;;10360125;28;20313;-71
2021/01/26 05:58:14;;;;;;;10.80;5.33;;;;;;;;;;10360827;28;20256;-72
2021/01/26 06:03:17;;;;;;;14.50;7.20;;;;;;;;;;10363942;28;20410;-70
2021/01/26 06:08:19;;;;;;;6.90;3.00;;;;;;;;;;10359108;28;20616;-71
2021/01/26 06:13:25;;;;;;;6.77;3.30;;;;;;;;;;10362522;28;21299;-71
2021/01/26 06:18:26;;;;;;;10.20;5.03;;;;;;;;;;10360597;28;20707;-72
2021/01/26 06:23:29;;;;;;;8.27;3.70;;;;;;;;;;10364243;28;20222;-72
2021/01/26 06:28:38;;;;;;;9.10;4.80;;;;;;;;;;10338914;28;20209;-72
2021/01/26 06:33:55;;;;;;;8.63;4.20;;;;;;;;;;10355661;28;20251;-73
2021/01/26 06:39:06;;;;;;;7.90;3.63;;;;;;;;;;10355779;28;20233;-72
2021/01/26 06:44:16;;;;;;;9.73;4.27;;;;;;;;;;10353200;28;20295;-71
2021/01/26 06:49:23;;;;;;;10.43;4.40;;;;;;;;;;10362301;28;20285;-71
2021/01/26 06:54:35;;;;;;;6.33;2.77;;;;;;;;;;10363284;28;20236;-71
2021/01/26 07:00:06;;;;;;;7.77;3.90;;;;;;;;;;10355971;28;20215;-72
2021/01/26 07:05:21;;;;;;;8.77;3.97;;;;;;;;;;10241718;28;20579;-70
2021/01/26 07:10:33;;;;;;;7.43;3.50;;;;;;;;;;10360564;28;20245;-71
2021/01/26 07:15:53;;;;;;;8.10;3.67;;;;;;;;;;10340091;28;20248;-72
2021/01/26 07:21:03;;;;;;;9.03;3.00;;;;;;;;;;10357240;28;20296;-70
2021/01/26 07:26:23;;;;;;;7.07;2.57;;;;;;;;;;10368275;28;20194;-71
2021/01/26 07:31:26;;;;;;;8.50;3.87;;;;;;;;;;10366997;28;20323;-72
2021/01/26 07:36:31;;;;;;;4.60;2.23;;;;;;;;;;10362008;28;20202;-71
2021/01/26 07:41:34;;;;;;;5.63;2.60;;;;;;;;;;10359200;28;20280;-72
2021/01/26 07:46:38;;;;;;;11.93;2.83;;;;;;;;;;10358696;28;20198;-71
2021/01/26 07:51:42;;;;;;;7.33;2.67;;;;;;;;;;10364755;28;20763;-72
2021/01/26 07:56:44;;;;;;;5.30;2.20;;;;;;;;;;10365493;28;20724;-70
2021/01/26 08:01:47;;;;;;;7.37;3.33;;;;;;;;;;10365486;28;20276;-71
2021/01/26 08:06:57;;;;;;;5.43;2.13;;;;;;;;;;10367378;28;20281;-71
2021/01/26 08:12:05;;;;;;;4.13;2.10;;;;;;;;;;10367107;28;20393;-72
2021/01/26 08:17:11;;;;;;;8.13;3.00;;;;;;;;;;10338811;28;20207;-71
2021/01/26 08:22:22;;;;;;;6.33;2.33;;;;;;;;;;10348991;28;20222;-71
2021/01/26 08:27:42;;;;;;;10.03;5.03;;;;;;;;;;10363808;28;20281;-71
2021/01/26 08:32:45;;;;;;;10.37;3.67;;;;;;;;;;10355345;28;20229;-71
2021/01/26 08:37:50;;;;;;;11.50;3.93;;;;;;;;;;10347028;28;20237;-71
2021/01/26 08:42:55;;;;;;;11.50;6.00;;;;;;;;;;10352583;28;20643;-71
2021/01/26 08:47:58;;;;;;;10.10;4.37;;;;;;;;;;10347319;28;20209;-70
2021/01/26 08:53:19;;;;;;;8.80;3.63;;;;;;;;;;10360443;28;20659;-70
2021/01/26 08:58:38;;;;;;;12.23;5.37;;;;;;;;;;10356517;28;20266;-71
2021/01/26 09:03:41;;;;;;;10.47;4.43;;;;;;;;;;10359494;28;20226;-71
2021/01/26 09:08:49;;;;;;;7.13;2.57;;;;;;;;;;10343391;28;20705;-71
2021/01/26 09:13:51;;;;;;;7.27;2.63;;;;;;;;;;10358776;28;20551;-72
2021/01/26 09:18:54;;;;;;;10.50;4.10;;;;;;;;;;10360712;28;20281;-71
2021/01/26 09:23:57;;;;;;;7.77;3.03;;;;;;;;;;10363927;28;20210;-72
2021/01/26 09:28:59;;;;;;;6.63;2.47;;;;;;;;;;10339404;28;20203;-71
2021/01/26 09:34:03;;;;;;;7.47;2.47;;;;;;;;;;10365851;28;20222;-70
2021/01/26 09:39:07;;;;;;;9.53;2.90;;;;;;;;;;10363461;28;20621;-71
2021/01/26 09:44:10;;;;;;;6.43;2.40;;;;;;;;;;10359838;28;20675;-70
2021/01/26 09:49:18;;;;;;;6.27;3.10;;;;;;;;;;10366990;28;20202;-70
2021/01/26 09:54:25;;;;;;;5.57;2.23;;;;;;;;;;10362776;28;20198;-70
2021/01/26 09:59:28;;;;;;;9.40;3.67;;;;;;;;;;10363160;28;20186;-71
2021/01/26 10:04:32;;;;;;;8.87;3.57;;;;;;;;;;10343721;28;20282;-71
2021/01/26 10:10:11;;;;;;;6.50;2.60;;;;;;;;;;10345683;28;20230;-71
2021/01/26 10:15:14;;;;;;;7.83;3.37;;;;;;;;;;10363963;28;20264;-71
2021/01/26 10:20:25;;;;;;;11.40;3.50;;;;;;;;;;10342355;28;20219;-71
2021/01/26 10:25:27;;;;;;;4.90;1.83;;;;;;;;;;10359700;28;20201;-71
2021/01/26 10:30:29;;;;;;;8.70;3.90;;;;;;;;;;10362910;28;20253;-71
2021/01/26 10:35:32;;;;;;;8.23;2.57;;;;;;;;;;10368763;28;20194;-70
2021/01/26 10:40:35;;;;;;;3.00;1.57;;;;;;;;;;10358806;28;20320;-71
2021/01/26 10:45:39;;;;;;;6.40;2.20;;;;;;;;;;10363107;28;20224;-71
2021/01/26 10:50:41;;;;;;;5.27;2.30;;;;;;;;;;10357540;28;20257;-69
2021/01/26 10:55:43;;;;;;;4.07;1.57;;;;;;;;;;10361849;28;20202;-70
2021/01/26 11:00:45;;;;;;;4.10;1.73;;;;;;;;;;10360161;28;20218;-72
2021/01/26 11:05:46;;;;;;;4.47;2.13;;;;;;;;;;10363356;28;20613;-72
2021/01/26 11:10:49;;;;;;;4.07;2.10;;;;;;;;;;10363544;28;20226;-71
2021/01/26 11:15:50;;;;;;;4.80;1.97;;;;;;;;;;10359746;28;20282;-71
2021/01/26 11:20:52;;;;;;;5.97;2.30;;;;;;;;;;10363062;28;20305;-71
2021/01/26 11:25:55;;;;;;;5.13;2.20;;;;;;;;;;10368896;28;20560;-71
2021/01/26 11:30:56;;;;;;;7.10;2.43;;;;;;;;;;10354863;28;20239;-71
2021/01/26 11:35:58;;;;;;;4.37;1.60;;;;;;;;;;10360629;28;20313;-71
2021/01/26 11:41:04;;;;;;;3.63;1.67;;;;;;;;;;10392954;28;20217;-71
2021/01/26 11:46:06;;;;;;;4.73;2.00;;;;;;;;;;10386659;28;20198;-72
2021/01/26 11:51:08;;;;;;;4.53;1.50;;;;;;;;;;10372691;28;20315;-71
2021/01/26 11:56:10;;;;;;;6.00;2.10;;;;;;;;;;10369796;28;20698;-72
2021/01/26 12:01:12;;;;;;;5.13;1.90;;;;;;;;;;10358834;28;20214;-71
2021/01/26 12:06:13;;;;;;;4.27;2.20;;;;;;;;;;10363858;28;20194;-71
2021/01/26 12:11:16;;;;;;;6.10;2.30;;;;;;;;;;10352814;28;20214;-70
2021/01/26 12:16:18;;;;;;;3.20;1.50;;;;;;;;;;10366419;28;20205;-71
2021/01/26 12:21:20;;;;;;;5.03;2.20;;;;;;;;;;10368042;28;20578;-73
2021/01/26 12:26:22;;;;;;;2.50;1.37;;;;;;;;;;10358847;28;20209;-70
2021/01/26 12:31:24;;;;;;;2.97;1.30;;;;;;;;;;10355155;28;20305;-71
2021/01/26 12:36:26;;;;;;;2.23;1.37;;;;;;;;;;10363409;28;20289;-71
2021/01/26 12:41:28;;;;;;;3.70;1.60;;;;;;;;;;10366482;28;20222;-71
2021/01/26 12:46:31;;;;;;;4.57;1.50;;;;;;;;;;10360159;28;20214;-71
2021/01/26 12:51:33;;;;;;;4.87;1.87;;;;;;;;;;10344905;28;20232;-72
2021/01/26 12:56:36;;;;;;;6.00;2.07;;;;;;;;;;10362464;28;20274;-73
2021/01/26 13:01:38;;;;;;;3.90;1.80;;;;;;;;;;10345699;28;20278;-73
2021/01/26 13:06:40;;;;;;;1.57;0.87;;;;;;;;;;10363860;28;20190;-72
2021/01/26 13:11:45;;;;;;;3.30;1.23;;;;;;;;;;10361491;28;20927;-73
2021/01/26 13:16:47;;;;;;;5.17;1.63;;;;;;;;;;10344719;28;20303;-72
2021/01/26 13:21:51;;;;;;;2.13;1.23;;;;;;;;;;10359144;28;20224;-73
2021/01/26 13:26:53;;;;;;;2.93;1.67;;;;;;;;;;10362973;28;20281;-72
2021/01/26 13:31:55;;;;;;;3.77;1.60;;;;;;;;;;10344458;28;20702;-72
2021/01/26 13:36:56;;;;;;;5.03;1.63;;;;;;;;;;10349365;28;20203;-71
2021/01/26 13:41:59;;;;;;;6.47;2.00;;;;;;;;;;10356564;28;20210;-72
2021/01/26 13:47:03;;;;;;;3.37;1.57;;;;;;;;;;10343977;28;20685;-71
2021/01/26 13:52:05;;;;;;;3.70;1.57;;;;;;;;;;10345175;28;20216;-70
2021/01/26 13:57:08;;;;;;;4.77;1.87;;;;;;;;;;10348672;28;20702;-70
2021/01/26 14:02:09;;;;;;;4.30;1.57;;;;;;;;;;10362234;28;20667;-70
2021/01/26 14:07:11;;;;;;;3.30;1.37;;;;;;;;;;10360453;28;20191;-70
2021/01/26 14:12:14;;;;;;;4.67;1.93;;;;;;;;;;10358164;28;20242;-71
2021/01/26 14:17:16;;;;;;;2.93;1.07;;;;;;;;;;10363894;28;20276;-71
2021/01/26 14:22:18;;;;;;;2.97;0.93;;;;;;;;;;10347202;28;20218;-71
2021/01/26 14:27:20;;;;;;;4.60;1.70;;;;;;;;;;10362484;28;20213;-72
2021/01/26 14:32:22;;;;;;;2.43;1.20;;;;;;;;;;10344120;28;20634;-71
2021/01/26 14:37:24;;;;;;;5.50;2.03;;;;;;;;;;10362899;28;20234;-70
2021/01/26 14:42:29;;;;;;;4.53;2.00;;;;;;;;;;10358700;28;20268;-72
2021/01/26 14:47:31;;;;;;;5.80;2.03;;;;;;;;;;10356671;28;20945;-71
2021/01/26 14:52:33;;;;;;;1.43;1.00;;;;;;;;;;10364235;28;20210;-71
2021/01/26 14:57:36;;;;;;;7.07;2.30;;;;;;;;;;10361815;28;20690;-71
2021/01/26 15:02:37;;;;;;;3.30;1.17;;;;;;;;;;10359443;28;20675;-72
2021/01/26 15:07:41;;;;;;;3.73;1.83;;;;;;;;;;10361042;28;20642;-71
2021/01/26 15:12:44;;;;;;;5.33;1.70;;;;;;;;;;10360878;28;20233;-71
2021/01/26 15:17:47;;;;;;;6.23;2.53;;;;;;;;;;10361816;28;20214;-72
2021/01/26 15:22:49;;;;;;;5.60;2.03;;;;;;;;;;10361655;28;20314;-71
2021/01/26 15:27:52;;;;;;;3.60;1.47;;;;;;;;;;10364635;28;20237;-72
2021/01/26 15:32:54;;;;;;;1.80;0.93;;;;;;;;;;10374533;28;20241;-71
2021/01/26 15:37:57;;;;;;;1.83;1.13;;;;;;;;;;10368526;28;20206;-71
2021/01/26 15:43:00;;;;;;;5.77;2.30;;;;;;;;;;10363434;28;20215;-71
2021/01/26 15:48:03;;;;;;;3.50;1.60;;;;;;;;;;10349109;28;20589;-72
2021/01/26 15:53:05;;;;;;;4.33;1.70;;;;;;;;;;10354536;28;20231;-72
2021/01/26 15:58:09;;;;;;;6.03;1.93;;;;;;;;;;10369940;28;20273;-72
2021/01/26 16:03:10;;;;;;;3.67;1.30;;;;;;;;;;10361411;28;20958;-72
2021/01/26 16:08:12;;;;;;;6.50;2.27;;;;;;;;;;10354815;28;20193;-71
2021/01/26 16:13:14;;;;;;;4.97;1.90;;;;;;;;;;10367309;28;20665;-71
2021/01/26 16:18:17;;;;;;;2.77;1.20;;;;;;;;;;10348831;28;20207;-72
2021/01/26 16:23:19;;;;;;;6.07;1.90;;;;;;;;;;10358584;28;20226;-72
2021/01/26 16:28:21;;;;;;;4.33;1.60;;;;;;;;;;10359245;28;20229;-71
2021/01/26 16:33:23;;;;;;;6.47;2.10;;;;;;;;;;10368889;28;20233;-71
2021/01/26 16:38:25;;;;;;;4.53;1.50;;;;;;;;;;10367175;28;20198;-71
2021/01/26 16:43:28;;;;;;;4.27;1.67;;;;;;;;;;10367136;28;20246;-72
2021/01/26 16:48:30;;;;;;;3.70;1.80;;;;;;;;;;10347581;28;20195;-70
2021/01/26 16:53:32;;;;;;;4.20;1.73;;;;;;;;;;10364926;28;20226;-72
2021/01/26 16:58:35;;;;;;;3.33;1.87;;;;;;;;;;10364667;28;20547;-70
2021/01/26 17:03:37;;;;;;;6.87;1.73;;;;;;;;;;10363444;28;20218;-71
2021/01/26 17:08:39;;;;;;;4.57;2.33;;;;;;;;;;10358813;28;20235;-71
2021/01/26 17:13:42;;;;;;;5.13;2.30;;;;;;;;;;10364510;28;20710;-71
2021/01/26 17:18:44;;;;;;;5.00;1.60;;;;;;;;;;10362053;28;20202;-69
2021/01/26 17:23:45;;;;;;;6.50;2.57;;;;;;;;;;10367318;28;20242;-72
2021/01/26 17:28:48;;;;;;;4.60;1.90;;;;;;;;;;10358064;28;20209;-71
2021/01/26 17:33:50;;;;;;;6.70;2.50;;;;;;;;;;10366843;28;20236;-71
2021/01/26 17:38:51;;;;;;;3.23;1.60;;;;;;;;;;10362970;28;20683;-72
2021/01/26 17:43:53;;;;;;;5.37;2.50;;;;;;;;;;10362656;28;20270;-71
2021/01/26 17:49:00;;;;;;;5.07;2.33;;;;;;;;;;10359856;28;20194;-72
2021/01/26 17:54:07;;;;;;;6.20;2.80;;;;;;;;;;10354257;28;20241;-72
2021/01/26 17:59:10;;;;;;;5.10;1.63;;;;;;;;;;10363054;28;20318;-71
2021/01/26 18:04:13;;;;;;;7.60;3.10;;;;;;;;;;10371178;28;20241;-71
2021/01/26 18:09:15;;;;;;;6.67;2.37;;;;;;;;;;10347098;28;20249;-71
2021/01/26 18:14:17;;;;;;;3.80;1.80;;;;;;;;;;10361318;28;20621;-72
2021/01/26 18:19:19;;;;;;;5.00;2.27;;;;;;;;;;10347955;28;20253;-71
2021/01/26 18:24:21;;;;;;;5.10;2.23;;;;;;;;;;10374493;28;20195;-72
2021/01/26 18:29:24;;;;;;;2.57;1.30;;;;;;;;;;10370660;28;20685;-70
2021/01/26 18:34:26;;;;;;;6.83;2.57;;;;;;;;;;10355059;28;20601;-71
2021/01/26 18:39:29;;;;;;;6.20;2.80;;;;;;;;;;10351965;28;20653;-70
2021/01/26 18:44:32;;;;;;;3.53;2.00;;;;;;;;;;10348099;28;20190;-71
2021/01/26 18:49:35;;;;;;;6.87;2.40;;;;;;;;;;10363613;28;20679;-70
2021/01/26 18:54:36;;;;;;;5.10;2.17;;;;;;;;;;10359596;28;20232;-71
2021/01/26 18:59:39;;;;;;;4.10;1.70;;;;;;;;;;10348993;28;20214;-71
2021/01/26 19:04:40;;;;;;;5.33;2.30;;;;;;;;;;10360096;28;20246;-72
2021/01/26 19:09:42;;;;;;;4.00;1.90;;;;;;;;;;10365451;28;20229;-72
2021/01/26 19:14:46;;;;;;;3.63;1.43;;;;;;;;;;10361409;28;20302;-71
2021/01/26 19:19:54;;;;;;;6.70;3.00;;;;;;;;;;10377616;28;20225;-72
2021/01/26 19:24:55;;;;;;;5.23;2.10;;;;;;;;;;10375673;28;20187;-72
2021/01/26 19:29:58;;;;;;;5.67;2.50;;;;;;;;;;10371421;28;20606;-71
2021/01/26 19:34:59;;;;;;;4.93;1.97;;;;;;;;;;10374016;28;20219;-70
2021/01/26 19:40:04;;;;;;;4.07;1.90;;;;;;;;;;10377289;28;20229;-71
2021/01/26 19:45:07;;;;;;;6.03;2.33;;;;;;;;;;10372631;28;20229;-72
2021/01/26 19:50:09;;;;;;;4.30;1.50;;;;;;;;;;10361117;28;20268;-71
2021/01/26 19:55:11;;;;;;;6.30;2.07;;;;;;;;;;10370847;28;20222;-71
2021/01/26 20:00:15;;;;;;;5.57;2.40;;;;;;;;;;10367301;28;20313;-70
2021/01/26 20:05:19;;;;;;;7.53;2.80;;;;;;;;;;10360425;28;20208;-71
2021/01/26 20:10:22;;;;;;;6.53;2.20;;;;;;;;;;10356130;28;20226;-71
2021/01/26 20:15:29;;;;;;;3.93;1.83;;;;;;;;;;10365921;28;20718;-70
2021/01/26 20:20:30;;;;;;;4.00;1.87;;;;;;;;;;10342872;28;20266;-72
2021/01/26 20:25:32;;;;;;;2.03;1.10;;;;;;;;;;10365096;28;20253;-71
2021/01/26 20:30:37;;;;;;;5.63;2.23;;;;;;;;;;10366787;28;20242;-71
2021/01/26 20:35:39;;;;;;;5.47;2.23;;;;;;;;;;10354563;28;20205;-71
2021/01/26 20:40:40;;;;;;;3.10;1.33;;;;;;;;;;10364934;28;20439;-71
2021/01/26 20:45:44;;;;;;;3.70;1.70;;;;;;;;;;10362651;28;20198;-72
2021/01/26 20:50:45;;;;;;;3.53;1.70;;;;;;;;;;10361667;28;20264;-71
2021/01/26 20:55:47;;;;;;;2.63;1.20;;;;;;;;;;10356254;28;20206;-71
2021/01/26 21:00:49;;;;;;;2.47;1.50;;;;;;;;;;10341950;28;20280;-68
2021/01/26 21:05:51;;;;;;;3.43;1.80;;;;;;;;;;10363325;28;20202;-71
2021/01/26 21:10:53;;;;;;;4.93;1.73;;;;;;;;;;10362502;28;20214;-73
2021/01/26 21:15:56;;;;;;;5.90;2.33;;;;;;;;;;10367268;28;20202;-72
2021/01/26 21:20:59;;;;;;;7.87;2.03;;;;;;;;;;10371180;28;20575;-76
2021/01/26 21:26:03;;;;;;;5.17;2.60;;;;;;;;;;10365661;28;20199;-74
2021/01/26 21:31:06;;;;;;;2.27;1.47;;;;;;;;;;10368013;28;20214;-73
2021/01/26 21:36:07;;;;;;;4.07;1.80;;;;;;;;;;10355280;28;20198;-73
2021/01/26 21:41:09;;;;;;;4.77;2.07;;;;;;;;;;10356927;28;20241;-73
2021/01/26 21:46:12;;;;;;;5.47;1.87;;;;;;;;;;10356974;28;20365;-71
2021/01/26 21:51:14;;;;;;;2.87;1.17;;;;;;;;;;10332179;28;20275;-73
2021/01/26 21:56:15;;;;;;;2.20;1.40;;;;;;;;;;10364096;28;20230;-74
2021/01/26 22:01:18;;;;;;;5.63;2.30;;;;;;;;;;10362047;28;20207;-73
2021/01/26 22:06:19;;;;;;;3.17;1.57;;;;;;;;;;10341989;28;20217;-74
2021/01/26 22:11:26;;;;;;;3.47;1.47;;;;;;;;;;10341863;28;20218;-74
2021/01/26 22:16:28;;;;;;;5.53;2.07;;;;;;;;;;10356587;28;20213;-73
2021/01/26 22:21:31;;;;;;;5.20;2.50;;;;;;;;;;10356324;28;20583;-73
2021/01/26 22:26:32;;;;;;;3.43;1.70;;;;;;;;;;10363433;28;20285;-73
2021/01/26 22:31:35;;;;;;;5.17;1.77;;;;;;;;;;10342404;28;20634;-72
2021/01/26 22:36:40;;;;;;;5.90;2.83;;;;;;;;;;10357341;28;20190;-73
2021/01/26 22:41:42;;;;;;;3.73;1.53;;;;;;;;;;10360606;28;20214;-73
2021/01/26 22:46:45;;;;;;;6.30;2.50;;;;;;;;;;10343797;28;20221;-72
2021/01/26 22:51:47;;;;;;;5.10;2.50;;;;;;;;;;10336537;28;20564;-72
2021/01/26 22:56:48;;;;;;;6.97;2.43;;;;;;;;;;10360025;28;20268;-73
2021/01/26 23:01:51;;;;;;;5.77;2.60;;;;;;;;;;10359747;28;20210;-73
2021/01/26 23:06:52;;;;;;;5.90;2.67;;;;;;;;;;10355795;28;20345;-73
2021/01/26 23:11:54;;;;;;;4.07;1.20;;;;;;;;;;10358152;28;20222;-73
2021/01/26 23:16:57;;;;;;;5.80;2.03;;;;;;;;;;10356121;28;20642;-74
2021/01/26 23:21:58;;;;;;;4.10;1.87;;;;;;;;;;10358868;28;20897;-74
2021/01/26 23:27:00;;;;;;;4.90;1.87;;;;;;;;;;10358354;28;20220;-74
2021/01/26 23:32:08;;;;;;;3.90;1.90;;;;;;;;;;10358413;28;20683;-74
2021/01/26 23:37:14;;;;;;;3.57;1.20;;;;;;;;;;10359397;28;20635;-74
2021/01/26 23:42:16;;;;;;;4.93;1.70;;;;;;;;;;10357126;28;20288;-73
2021/01/26 23:47:18;;;;;;;2.63;1.13;;;;;;;;;;10358094;28;20222;-72
2021/01/26 23:52:20;;;;;;;4.33;1.80;;;;;;;;;;10358718;28;21874;-74
2021/01/26 23:57:22;;;;;;;2.93;1.70;;;;;;;;;;10355622;28;20271;-73
